createdAt,value
2023-01-17T00:00:21.135Z,0.90
2023-01-17T00:05:41.790Z,1.00
2023-01-17T00:10:44.704Z,1.10
2023-01-17T00:15:48.986Z,1.27
2023-01-17T00:21:09.343Z,0.60
2023-01-17T00:26:14.908Z,0.50
2023-01-17T00:31:18.238Z,0.50
2023-01-17T00:36:20.011Z,0.63
2023-01-17T00:41:21.767Z,1.00
2023-01-17T00:46:43.917Z,0.60
2023-01-17T00:52:10.517Z,0.40
2023-01-17T00:57:30.892Z,0.90
2023-01-17T01:02:53.176Z,0.70
2023-01-17T01:08:13.469Z,0.60
2023-01-17T01:13:33.893Z,0.90
2023-01-17T01:18:55.538Z,0.57
2023-01-17T01:24:15.802Z,0.60
2023-01-17T01:29:36.210Z,0.90
2023-01-17T01:34:40.410Z,1.00
2023-01-17T01:39:43.222Z,0.97
2023-01-17T01:44:48.581Z,1.23
2023-01-17T01:49:52.950Z,0.90
2023-01-17T01:54:58.172Z,0.87
2023-01-17T02:00:04.864Z,1.07
2023-01-17T02:05:18.652Z,0.57
2023-01-17T02:10:21.580Z,0.70
2023-01-17T02:15:29.821Z,0.30
2023-01-17T02:20:59.147Z,0.40
2023-01-17T02:26:38.298Z,0.70
2023-01-17T02:31:47.881Z,0.37
2023-01-17T02:36:53.694Z,0.60
2023-01-17T02:42:02.076Z,1.27
2023-01-17T02:47:21.944Z,0.53
2023-01-17T02:52:37.913Z,0.50
2023-01-17T02:57:51.200Z,0.57
2023-01-17T03:03:01.166Z,0.70
2023-01-17T03:08:04.947Z,0.60
2023-01-17T03:13:07.849Z,0.60
2023-01-17T03:18:14.104Z,0.47
2023-01-17T03:23:16.918Z,1.00
2023-01-17T03:28:19.740Z,0.40
2023-01-17T03:33:25.154Z,0.80
2023-01-17T03:38:29.253Z,0.80
2023-01-17T03:43:32.128Z,0.90
2023-01-17T03:48:36.386Z,0.93
2023-01-17T03:53:39.203Z,0.67
2023-01-17T03:58:42.105Z,0.40
2023-01-17T04:03:46.216Z,0.67
2023-01-17T04:08:48.990Z,0.70
2023-01-17T04:13:51.772Z,0.70
2023-01-17T04:18:56.024Z,0.90
2023-01-17T04:23:58.911Z,0.43
2023-01-17T04:29:01.680Z,0.50
2023-01-17T04:34:05.897Z,1.00
2023-01-17T04:39:08.730Z,0.77
2023-01-17T04:44:11.557Z,0.47
2023-01-17T04:49:15.766Z,0.53
2023-01-17T04:54:18.945Z,0.60
2023-01-17T04:59:21.806Z,0.60
2023-01-17T05:04:25.981Z,1.00
2023-01-17T05:09:28.838Z,0.70
2023-01-17T05:14:34.214Z,0.77
2023-01-17T05:19:38.542Z,1.20
2023-01-17T05:24:41.791Z,0.77
2023-01-17T05:29:44.655Z,1.17
2023-01-17T05:34:48.923Z,0.40
2023-01-17T05:39:51.820Z,0.40
2023-01-17T05:44:55.078Z,0.53
2023-01-17T05:49:59.231Z,0.57
2023-01-17T05:55:06.647Z,0.80
2023-01-17T06:00:10.685Z,0.77
2023-01-17T06:05:15.442Z,1.50
2023-01-17T06:10:22.158Z,0.70
2023-01-17T06:15:24.954Z,1.00
2023-01-17T06:20:29.194Z,1.00
2023-01-17T06:25:32.443Z,0.97
2023-01-17T06:30:35.792Z,0.77
2023-01-17T06:35:40.903Z,0.70
2023-01-17T06:40:43.768Z,0.83
2023-01-17T06:45:46.542Z,0.80
2023-01-17T06:50:50.868Z,0.63
2023-01-17T06:55:56.910Z,0.70
2023-01-17T07:00:59.907Z,0.93
2023-01-17T07:06:04.189Z,0.50
2023-01-17T07:11:08.612Z,0.70
2023-01-17T07:16:11.447Z,0.97
2023-01-17T07:21:16.508Z,1.10
2023-01-17T07:26:19.379Z,0.63
2023-01-17T07:31:22.349Z,1.03
2023-01-17T07:36:26.778Z,0.67
2023-01-17T07:41:32.304Z,0.90
2023-01-17T07:46:40.835Z,0.90
2023-01-17T07:51:45.239Z,0.70
2023-01-17T07:57:12.801Z,0.83
2023-01-17T08:02:18.732Z,0.73
2023-01-17T08:07:22.990Z,0.90
2023-01-17T08:12:26.971Z,0.90
2023-01-17T08:17:29.759Z,0.63
2023-01-17T08:22:33.990Z,0.90
2023-01-17T08:27:37.010Z,0.37
2023-01-17T08:32:40.886Z,0.53
2023-01-17T08:37:47.464Z,0.70
2023-01-17T08:42:55.411Z,0.60
2023-01-17T08:47:59.633Z,0.60
2023-01-17T08:53:03.815Z,0.93
2023-01-17T08:58:06.603Z,0.40
2023-01-17T09:03:14.319Z,0.80
2023-01-17T09:08:18.497Z,0.80
2023-01-17T09:13:21.305Z,0.80
2023-01-17T09:18:24.113Z,0.87
2023-01-17T09:23:30.503Z,0.90
2023-01-17T09:28:39.600Z,0.97
2023-01-17T09:33:43.028Z,0.70
2023-01-17T09:38:47.526Z,1.57
2023-01-17T09:43:56.096Z,0.53
2023-01-17T09:49:04.494Z,0.70
2023-01-17T09:54:15.472Z,0.70
2023-01-17T09:59:32.204Z,1.07
2023-01-17T10:04:51.287Z,1.10
2023-01-17T10:10:21.910Z,0.97
2023-01-17T10:15:49.200Z,0.50
2023-01-17T10:20:55.776Z,1.00
2023-01-17T10:26:01.288Z,1.10
2023-01-17T10:31:06.865Z,0.70
2023-01-17T10:36:15.411Z,1.00
2023-01-17T10:41:25.159Z,1.00
2023-01-17T10:46:33.535Z,0.73
2023-01-17T10:52:05.600Z,0.60
2023-01-17T10:57:14.984Z,0.57
2023-01-17T11:02:23.103Z,0.70
2023-01-17T11:07:29.084Z,0.60
2023-01-17T11:12:34.713Z,0.67
2023-01-17T11:17:38.639Z,0.40
2023-01-17T11:22:43.526Z,0.47
2023-01-17T11:27:58.767Z,0.50
2023-01-17T11:33:03.934Z,0.60
2023-01-17T11:38:11.783Z,0.40
2023-01-17T11:43:26.386Z,0.40
2023-01-17T11:48:35.172Z,0.50
2023-01-17T11:53:42.325Z,0.50
2023-01-17T11:58:47.290Z,0.60
2023-01-17T12:04:09.753Z,0.37
2023-01-17T12:09:22.880Z,0.50
2023-01-17T12:14:34.849Z,0.40
2023-01-17T12:19:48.999Z,0.50
2023-01-17T12:25:14.909Z,0.70
2023-01-17T12:30:39.334Z,1.00
2023-01-17T12:35:46.577Z,0.60
2023-01-17T12:40:52.400Z,0.80
2023-01-17T12:45:57.227Z,0.70
2023-01-17T12:51:04.249Z,0.57
2023-01-17T12:56:10.558Z,0.60
2023-01-17T13:01:21.201Z,0.90
2023-01-17T13:06:29.726Z,0.40
2023-01-17T13:11:44.010Z,1.27
2023-01-17T13:16:53.923Z,0.57
2023-01-17T13:21:57.575Z,1.10
2023-01-17T13:27:48.094Z,0.60
2023-01-17T13:38:59.475Z,1.07
2023-01-17T13:44:20.390Z,0.77
2023-01-17T13:49:34.160Z,0.70
2023-01-17T13:54:44.859Z,0.95
2023-01-17T13:59:47.778Z,0.93
2023-01-17T14:05:13.378Z,0.60
2023-01-17T14:10:30.200Z,0.60
2023-01-17T14:15:35.237Z,1.57
2023-01-17T14:20:48.906Z,0.70
2023-01-17T14:25:52.167Z,0.80
2023-01-17T14:30:56.582Z,0.53
2023-01-17T14:36:07.065Z,0.60
2023-01-17T14:41:14.215Z,0.50
2023-01-17T14:46:22.605Z,0.60
2023-01-17T14:51:26.905Z,0.70
2023-01-17T14:56:31.373Z,0.93
2023-01-17T15:01:35.661Z,0.57
2023-01-17T15:06:42.013Z,0.70
2023-01-17T15:11:45.865Z,0.60
2023-01-17T15:16:51.974Z,0.87
2023-01-17T15:21:56.317Z,0.73
2023-01-17T15:26:59.192Z,1.17
2023-01-17T15:32:03.364Z,0.80
2023-01-17T15:37:09.544Z,0.87
2023-01-17T15:42:21.440Z,2.80
2023-01-17T15:47:29.683Z,1.37
2023-01-17T15:52:33.916Z,0.70
2023-01-17T15:57:37.662Z,1.17
2023-01-17T16:02:43.637Z,4.90
2023-01-17T16:07:48.273Z,3.37
2023-01-17T16:12:54.049Z,2.10
2023-01-17T16:18:04.214Z,1.30
2023-01-17T16:23:10.589Z,1.07
2023-01-17T16:28:13.421Z,1.67
2023-01-17T16:33:16.785Z,1.33
2023-01-17T16:38:21.046Z,0.87
2023-01-17T16:43:23.855Z,7.10
2023-01-17T16:48:26.768Z,2.80
2023-01-17T16:53:30.929Z,1.53
2023-01-17T16:58:33.711Z,1.13
2023-01-17T17:03:36.514Z,1.03
2023-01-17T17:08:40.887Z,0.90
2023-01-17T17:13:45.377Z,1.10
2023-01-17T17:18:54.844Z,1.13
2023-01-17T17:24:00.497Z,1.43
2023-01-17T17:29:03.966Z,0.90
2023-01-17T17:34:07.643Z,1.33
2023-01-17T17:39:14.792Z,1.27
2023-01-17T17:44:20.424Z,1.30
2023-01-17T17:49:23.351Z,1.40
2023-01-17T17:54:27.597Z,1.50
2023-01-17T17:59:31.164Z,1.20
2023-01-17T18:04:34.076Z,1.30
2023-01-17T18:09:39.306Z,1.20
2023-01-17T18:14:42.162Z,1.07
2023-01-17T18:19:46.149Z,1.30
2023-01-17T18:24:50.355Z,1.17
2023-01-17T18:29:53.205Z,1.00
2023-01-17T18:34:56.076Z,1.20
2023-01-17T18:40:00.339Z,1.10
2023-01-17T18:45:03.278Z,1.57
2023-01-17T18:50:06.716Z,1.17
2023-01-17T18:55:11.123Z,1.40
2023-01-17T19:00:15.485Z,1.73
2023-01-17T19:05:21.582Z,2.80
2023-01-17T19:10:25.945Z,1.47
2023-01-17T19:15:29.184Z,2.20
2023-01-17T19:20:32.451Z,1.10
2023-01-17T19:25:37.270Z,2.57
2023-01-17T19:30:40.829Z,1.43
2023-01-17T19:35:43.655Z,1.53
2023-01-17T19:40:47.846Z,1.47
2023-01-17T19:45:58.477Z,1.80
2023-01-17T19:51:05.714Z,2.40
2023-01-17T19:56:11.720Z,1.93
2023-01-17T20:01:16.089Z,1.83
2023-01-17T20:06:20.920Z,2.07
2023-01-17T20:11:26.135Z,1.60
2023-01-17T20:16:31.710Z,2.30
2023-01-17T20:21:34.637Z,2.47
2023-01-17T20:26:38.859Z,1.77
2023-01-17T20:31:42.890Z,1.90
2023-01-17T20:36:46.137Z,2.23
2023-01-17T20:41:51.529Z,1.80
2023-01-17T20:46:54.386Z,1.43
2023-01-17T20:51:57.892Z,3.57
2023-01-17T20:57:02.080Z,3.27
2023-01-17T21:02:05.097Z,2.80
2023-01-17T21:07:14.013Z,3.07
2023-01-17T21:12:18.461Z,2.20
2023-01-17T21:17:21.338Z,2.03
2023-01-17T21:22:24.213Z,2.47
2023-01-17T21:27:28.493Z,2.73
2023-01-17T21:32:31.429Z,1.77
2023-01-17T21:37:34.333Z,2.07
2023-01-17T21:42:38.530Z,2.13
2023-01-17T21:47:44.565Z,2.23
2023-01-17T21:52:47.415Z,2.20
2023-01-17T21:58:09.504Z,2.27
2023-01-17T22:03:12.479Z,1.63
2023-01-17T22:08:15.553Z,1.83
2023-01-17T22:13:20.162Z,1.43
2023-01-17T22:18:23.431Z,2.10
2023-01-17T22:23:28.965Z,2.20
2023-01-17T22:28:34.023Z,2.63
2023-01-17T22:33:36.937Z,2.60
2023-01-17T22:38:39.725Z,2.10
2023-01-17T22:43:46.585Z,2.30
2023-01-17T22:48:49.836Z,2.83
2023-01-17T22:53:54.163Z,2.50
2023-01-17T22:58:58.763Z,2.20
2023-01-17T23:04:02.895Z,2.13
2023-01-17T23:09:08.314Z,2.23
2023-01-17T23:14:15.618Z,2.07
2023-01-17T23:19:24.733Z,2.20
2023-01-17T23:24:27.810Z,2.00
2023-01-17T23:29:34.457Z,2.00
2023-01-17T23:34:37.289Z,2.30
2023-01-17T23:39:40.078Z,2.60
2023-01-17T23:44:44.317Z,1.80
2023-01-17T23:49:48.224Z,2.43
2023-01-17T23:54:51.495Z,2.37
2023-01-17T23:59:55.747Z,3.00
